Humboldt Bay — A8OL4 — position and weather

sailwx.info

Track history (hours):
 
Tides and Currents Weather Stations Pressure Air Temp Water Temp Dewpoint Dewpoint Depression Visibility Wind Speed Wind Dir Waves Ship Positions

Humboldt Bay

Last reported at 2016-Apr-25 19:33 UTC. Time now 2016-Apr-29 13:59 UTC.
Position N 16°55' W 061°12'.

Length 147 m; draft 7.3 m.

Type: Cargo ship. MMSI: 636013649.

Date/timePositionNaut miles runAvg speedWind from/ knotsBaromVisibWave heightAir tempDewpointWater temp
2016-Apr-25 19:33N 16°55' W 061°12'1515.0
2016-Apr-25 18:34N 16°49' W 061°26'1515.4
2016-Apr-25 17:34N 16°42' W 061°41'1515.5
2016-Apr-25 16:33N 16°37' W 061°56'1616.1
2016-Apr-25 15:33N 16°31' W 062°12'1616.2
2016-Apr-25 14:33N 16°25' W 062°27'  
2016-Apr-22 11:33N 09°36' W 079°47'1313.3
2016-Apr-22 10:33N 09°25' W 079°55'8 7.8
2016-Apr-22 09:34N 09°18' W 079°55'1 1.4
2016-Apr-22 08:31N 09°16' W 079°55'4 4.4
2016-Apr-22 07:33N 09°12' W 079°54'  
Track history (hours):
 
Tides and Currents Weather Stations Pressure Air Temp Water Temp Dewpoint Dewpoint Depression Visibility Wind Speed Wind Dir Waves Ship Positions

Humboldt Bay

Last reported at 2016-Apr-25 19:33 UTC. Time now 2016-Apr-29 13:59 UTC.
Position N 16°55' W 061°12'.

Length 147 m; draft 7.3 m.

Type: Cargo ship. MMSI: 636013649.

Date/timePositionNaut miles runAvg speedWind from/ knotsBaromVisibWave heightAir tempDewpointWater temp
2016-Apr-25 19:33N 16°55' W 061°12'1515.0
2016-Apr-25 18:34N 16°49' W 061°26'1515.4
2016-Apr-25 17:34N 16°42' W 061°41'1515.5
2016-Apr-25 16:33N 16°37' W 061°56'1616.1
2016-Apr-25 15:33N 16°31' W 062°12'1616.2
2016-Apr-25 14:33N 16°25' W 062°27'  
2016-Apr-22 11:33N 09°36' W 079°47'1313.3
2016-Apr-22 10:33N 09°25' W 079°55'8 7.8
2016-Apr-22 09:34N 09°18' W 079°55'1 1.4
2016-Apr-22 08:31N 09°16' W 079°55'4 4.4
2016-Apr-22 07:33N 09°12' W 079°54'  

Dump ship's entire track history